createdAt,value
2019-05-20T00:01:08.180Z,5.70
2019-05-20T00:03:35.571Z,6.80
2019-05-20T00:06:02.989Z,6.97
2019-05-20T00:08:30.205Z,7.07
2019-05-20T00:10:57.489Z,6.83
2019-05-20T00:13:24.851Z,4.90
2019-05-20T00:15:52.163Z,5.50
2019-05-20T00:18:19.506Z,6.80
2019-05-20T00:20:46.633Z,6.50
2019-05-20T00:23:13.914Z,6.80
2019-05-20T00:25:41.328Z,6.67
2019-05-20T00:28:08.578Z,4.47
2019-05-20T00:30:36.008Z,5.70
2019-05-20T00:33:03.421Z,6.57
2019-05-20T00:35:30.859Z,6.47
2019-05-20T00:38:00.261Z,3.93
2019-05-20T00:40:27.520Z,6.27
2019-05-20T00:42:54.692Z,6.27
2019-05-20T00:45:22.059Z,7.30
2019-05-20T00:47:49.211Z,6.40
2019-05-20T00:50:16.786Z,7.27
2019-05-20T00:52:44.258Z,4.50
2019-05-20T00:55:27.875Z,5.13
2019-05-20T00:57:55.226Z,5.10
2019-05-20T01:00:23.406Z,3.97
2019-05-20T01:02:56.773Z,5.67
2019-05-20T01:05:20.197Z,6.80
2019-05-20T01:07:47.795Z,4.83
2019-05-20T01:10:15.766Z,7.03
2019-05-20T01:12:43.151Z,5.53
2019-05-20T01:15:10.980Z,5.43
2019-05-20T01:17:38.290Z,5.87
2019-05-20T01:20:06.415Z,5.77
2019-05-20T01:22:36.991Z,4.67
2019-05-20T01:25:04.785Z,6.90
2019-05-20T01:27:33.089Z,5.80
2019-05-20T01:30:00.463Z,6.90
2019-05-20T01:32:27.720Z,4.67
2019-05-20T01:34:55.089Z,6.80
2019-05-20T01:37:22.402Z,7.87
2019-05-20T01:39:49.660Z,4.93
2019-05-20T01:42:16.923Z,4.90
2019-05-20T01:44:44.319Z,6.33
2019-05-20T01:47:16.537Z,6.17
2019-05-20T01:49:44.493Z,4.37
2019-05-20T01:52:12.613Z,4.03
2019-05-20T01:54:43.458Z,6.47
2019-05-20T01:57:10.661Z,5.47
2019-05-20T01:59:37.861Z,4.60
2019-05-20T02:02:05.217Z,6.23
2019-05-20T02:04:33.380Z,6.63
2019-05-20T02:07:02.248Z,7.33
2019-05-20T02:09:30.650Z,5.13
2019-05-20T02:11:58.034Z,6.13
2019-05-20T02:14:28.001Z,6.30
2019-05-20T02:16:56.018Z,7.00
2019-05-20T02:19:23.879Z,7.10
2019-05-20T02:21:52.508Z,7.17
2019-05-20T02:24:20.590Z,6.47
2019-05-20T02:26:47.860Z,5.50
2019-05-20T02:29:15.028Z,6.27
2019-05-20T02:31:42.208Z,8.50
2019-05-20T02:34:09.567Z,7.20
2019-05-20T02:36:36.843Z,8.20
2019-05-20T02:39:05.370Z,6.50
2019-05-20T02:41:32.846Z,6.60
2019-05-20T02:44:00.326Z,7.27
2019-05-20T02:46:27.597Z,6.00
2019-05-20T02:48:54.834Z,6.73
2019-05-20T02:51:32.254Z,6.70
2019-05-20T02:54:03.526Z,6.70
2019-05-20T02:56:32.104Z,8.38
2019-05-20T02:59:04.290Z,7.27
2019-05-20T03:01:34.008Z,6.53
2019-05-20T03:04:11.524Z,7.73
2019-05-20T03:06:33.027Z,5.97
2019-05-20T03:09:00.490Z,7.00
2019-05-20T03:11:27.748Z,7.47
2019-05-20T03:13:55.036Z,5.60
2019-05-20T03:16:22.188Z,7.07
2019-05-20T03:18:49.604Z,4.80
2019-05-20T03:21:16.829Z,4.60
2019-05-20T03:23:44.085Z,6.40
2019-05-20T03:26:11.484Z,5.70
2019-05-20T03:28:43.099Z,5.40
2019-05-20T03:31:10.569Z,5.30
2019-05-20T03:33:37.829Z,7.53
2019-05-20T03:36:05.461Z,7.13
2019-05-20T03:38:32.803Z,7.43
2019-05-20T03:41:00.077Z,6.57
2019-05-20T03:43:27.378Z,8.73
2019-05-20T03:45:54.806Z,6.77
2019-05-20T03:48:22.170Z,7.43
2019-05-20T03:50:49.633Z,5.57
2019-05-20T03:53:17.137Z,6.97
2019-05-20T03:55:44.321Z,8.63
2019-05-20T03:58:13.677Z,7.30
2019-05-20T04:00:43.804Z,8.90
2019-05-20T04:03:11.909Z,7.20
2019-05-20T04:05:39.815Z,7.87
2019-05-20T04:08:07.303Z,6.03
2019-05-20T04:10:34.555Z,5.60
2019-05-20T04:13:01.962Z,7.47
2019-05-20T04:15:29.429Z,5.60
2019-05-20T04:17:56.800Z,6.07
2019-05-20T04:20:24.155Z,7.77
2019-05-20T04:22:51.524Z,5.57
2019-05-20T04:25:18.901Z,6.50
2019-05-20T04:27:46.343Z,8.50
2019-05-20T04:30:18.691Z,6.60
2019-05-20T04:32:44.138Z,8.63
2019-05-20T04:35:21.974Z,8.27
2019-05-20T04:37:40.866Z,6.70
2019-05-20T04:40:09.133Z,6.93
2019-05-20T04:42:36.739Z,7.40
2019-05-20T04:45:06.413Z,8.50
2019-05-20T04:47:33.599Z,7.00
2019-05-20T04:50:00.838Z,7.10
2019-05-20T04:52:28.107Z,8.53
2019-05-20T04:54:55.399Z,7.77
2019-05-20T04:57:22.663Z,7.83
2019-05-20T04:59:50.009Z,7.93
2019-05-20T05:02:17.233Z,7.60
2019-05-20T05:04:44.478Z,8.00
2019-05-20T05:07:11.962Z,8.47
2019-05-20T05:09:39.345Z,7.30
2019-05-20T05:12:06.592Z,7.33
2019-05-20T05:14:34.054Z,7.53
2019-05-20T05:17:01.429Z,7.27
2019-05-20T05:19:29.101Z,8.33
2019-05-20T05:21:56.458Z,8.00
2019-05-20T05:24:23.908Z,7.97
2019-05-20T05:26:51.481Z,7.60
2019-05-20T05:29:18.992Z,6.47
2019-05-20T05:31:46.458Z,8.13
2019-05-20T05:34:13.954Z,7.27
2019-05-20T05:36:41.427Z,8.37
2019-05-20T05:39:08.850Z,7.30
2019-05-20T05:41:36.157Z,7.37
2019-05-20T05:44:03.695Z,7.13
2019-05-20T05:46:30.856Z,6.93
2019-05-20T05:48:58.103Z,6.40
2019-05-20T05:51:25.573Z,7.33
2019-05-20T05:53:52.873Z,7.53
2019-05-20T05:56:20.129Z,7.00
2019-05-20T05:58:50.788Z,6.93
2019-05-20T06:01:18.252Z,7.33
2019-05-20T06:03:45.771Z,7.47
2019-05-20T06:06:13.707Z,6.90
2019-05-20T06:08:41.098Z,7.27
2019-05-20T06:11:08.487Z,7.67
2019-05-20T06:13:35.888Z,7.13
2019-05-20T06:16:03.360Z,7.70
2019-05-20T06:18:30.530Z,7.17
2019-05-20T06:20:57.919Z,7.80
2019-05-20T06:23:25.330Z,7.53
2019-05-20T06:25:52.613Z,8.77
2019-05-20T06:28:20.057Z,7.90
2019-05-20T06:30:47.812Z,7.50
2019-05-20T06:33:15.173Z,7.67
2019-05-20T06:35:42.871Z,7.40
2019-05-20T06:38:32.924Z,7.03
2019-05-20T06:41:00.328Z,7.30
2019-05-20T06:43:28.063Z,6.87
2019-05-20T06:45:55.499Z,7.13
2019-05-20T06:48:22.904Z,7.13
2019-05-20T06:50:57.541Z,7.63
2019-05-20T06:53:24.964Z,6.77
2019-05-20T06:55:52.370Z,7.27
2019-05-20T06:58:19.653Z,7.27
2019-05-20T07:00:47.142Z,7.60
2019-05-20T07:03:14.523Z,8.03
2019-05-20T07:05:41.817Z,7.23
2019-05-20T07:08:09.323Z,7.33
2019-05-20T07:10:36.791Z,7.20
2019-05-20T07:13:04.415Z,7.70
2019-05-20T07:15:31.864Z,7.73
2019-05-20T07:17:59.495Z,8.60
2019-05-20T07:20:26.646Z,7.43
2019-05-20T07:22:56.238Z,8.07
2019-05-20T07:25:23.978Z,9.13
2019-05-20T07:27:51.820Z,8.17
2019-05-20T07:30:19.395Z,7.93
2019-05-20T07:32:46.566Z,7.80
2019-05-20T07:35:28.783Z,7.53
2019-05-20T07:37:43.340Z,7.40
2019-05-20T07:40:12.569Z,7.43
2019-05-20T07:42:40.047Z,6.87
2019-05-20T07:45:08.166Z,7.80
2019-05-20T07:47:35.771Z,6.50
2019-05-20T07:50:03.675Z,6.90
2019-05-20T07:52:31.255Z,7.37
2019-05-20T07:54:59.637Z,7.17
2019-05-20T07:57:33.405Z,8.17
2019-05-20T08:00:01.066Z,8.87
2019-05-20T08:02:29.242Z,8.30
2019-05-20T08:04:56.633Z,9.57
2019-05-20T08:07:27.857Z,8.80
2019-05-20T08:09:53.330Z,8.80
2019-05-20T08:12:20.821Z,9.57
2019-05-20T08:14:51.179Z,9.27
2019-05-20T08:17:19.774Z,9.00
2019-05-20T08:19:47.342Z,8.70
2019-05-20T08:22:14.838Z,9.37
2019-05-20T08:24:42.563Z,8.30
2019-05-20T08:27:10.286Z,8.73
2019-05-20T08:29:37.919Z,8.27
2019-05-20T08:32:08.189Z,7.83
2019-05-20T08:34:36.310Z,7.90
2019-05-20T08:37:04.451Z,6.37
2019-05-20T08:39:31.757Z,7.30
2019-05-20T08:42:00.389Z,8.70
2019-05-20T08:44:27.672Z,7.63
2019-05-20T08:46:55.016Z,7.87
2019-05-20T08:49:22.675Z,8.37
2019-05-20T08:51:50.104Z,7.60
2019-05-20T08:54:17.654Z,9.27
2019-05-20T08:56:44.852Z,8.00
2019-05-20T08:59:12.307Z,7.50
2019-05-20T09:01:39.774Z,7.57
2019-05-20T09:04:07.230Z,7.53
2019-05-20T09:06:34.585Z,9.93
2019-05-20T09:09:04.614Z,7.97
2019-05-20T09:11:32.027Z,8.20
2019-05-20T09:13:59.209Z,8.10
2019-05-20T09:16:26.706Z,7.77
2019-05-20T09:18:54.245Z,8.57
2019-05-20T09:21:21.656Z,8.43
2019-05-20T09:23:49.213Z,7.50
2019-05-20T09:26:16.705Z,9.03
2019-05-20T09:28:44.073Z,8.00
2019-05-20T09:31:12.377Z,9.47
2019-05-20T09:33:40.216Z,8.33
2019-05-20T09:36:07.658Z,8.03
2019-05-20T09:38:37.131Z,8.77
2019-05-20T09:41:04.498Z,8.70
2019-05-20T09:43:32.164Z,8.77
2019-05-20T09:46:07.840Z,9.37
2019-05-20T09:48:28.793Z,8.97
2019-05-20T09:50:56.159Z,9.03
2019-05-20T09:53:23.413Z,9.97
2019-05-20T09:55:50.752Z,10.28
2019-05-20T09:58:18.214Z,10.03
2019-05-20T10:00:48.373Z,9.63
2019-05-20T10:03:15.791Z,8.83
2019-05-20T10:05:43.954Z,10.47
2019-05-20T10:08:14.109Z,11.27
2019-05-20T10:10:44.257Z,10.93
2019-05-20T10:13:11.708Z,9.03
2019-05-20T10:15:39.464Z,10.10
2019-05-20T10:18:06.978Z,10.20
2019-05-20T10:20:34.449Z,10.37
2019-05-20T10:23:01.937Z,10.30
2019-05-20T10:25:29.484Z,10.97
2019-05-20T10:27:57.834Z,12.07
2019-05-20T10:30:27.694Z,12.33
2019-05-20T10:32:55.106Z,13.53
2019-05-20T10:35:22.707Z,12.77
2019-05-20T10:37:50.375Z,12.87
2019-05-20T10:40:18.277Z,12.93
2019-05-20T10:42:46.170Z,13.93
2019-05-20T10:45:13.813Z,12.30
2019-05-20T10:47:41.228Z,13.80
2019-05-20T10:50:08.925Z,13.20
2019-05-20T10:52:36.370Z,13.40
2019-05-20T10:55:04.653Z,13.90
2019-05-20T10:57:32.053Z,13.77
2019-05-20T11:00:01.282Z,13.83
2019-05-20T11:02:31.217Z,13.33
2019-05-20T11:05:00.564Z,12.00
2019-05-20T11:07:28.134Z,13.37
2019-05-20T11:09:55.549Z,13.17
2019-05-20T11:12:22.938Z,12.93
2019-05-20T11:14:50.216Z,11.90
2019-05-20T11:17:17.770Z,12.83
2019-05-20T11:19:45.236Z,12.50
2019-05-20T11:22:14.363Z,13.70
2019-05-20T11:24:41.897Z,11.30
2019-05-20T11:27:09.487Z,11.83
2019-05-20T11:29:36.877Z,11.50
2019-05-20T11:32:04.386Z,11.27
2019-05-20T11:34:31.698Z,10.43
2019-05-20T11:36:59.140Z,11.80
2019-05-20T11:39:33.119Z,10.97
2019-05-20T11:41:55.754Z,10.73
2019-05-20T11:44:23.182Z,12.00
2019-05-20T11:46:50.398Z,11.70
2019-05-20T11:49:17.905Z,11.50
2019-05-20T11:51:45.534Z,11.17
2019-05-20T11:54:13.031Z,11.07
2019-05-20T11:56:40.322Z,9.87
2019-05-20T11:59:07.757Z,11.70
2019-05-20T12:01:35.569Z,9.77
2019-05-20T12:04:05.514Z,11.67
2019-05-20T12:06:33.057Z,12.17
2019-05-20T12:09:00.253Z,10.17
2019-05-20T12:11:27.724Z,10.70
2019-05-20T12:13:55.228Z,10.77
2019-05-20T12:16:22.971Z,12.03
2019-05-20T12:18:53.376Z,12.17
2019-05-20T12:21:23.090Z,12.47
2019-05-20T12:23:50.283Z,11.90
2019-05-20T12:26:17.711Z,12.97
2019-05-20T12:28:45.339Z,13.17
2019-05-20T12:31:16.942Z,12.00
2019-05-20T12:33:44.295Z,11.97
2019-05-20T12:36:12.058Z,13.43
2019-05-20T12:38:39.372Z,11.53
2019-05-20T12:41:06.864Z,11.27
2019-05-20T12:43:34.073Z,11.37
2019-05-20T12:46:01.415Z,10.80
2019-05-20T12:48:28.777Z,12.97
2019-05-20T12:50:56.054Z,13.10
2019-05-20T12:53:23.311Z,11.77
2019-05-20T12:55:50.775Z,14.53
2019-05-20T12:58:18.273Z,13.30
2019-05-20T13:00:45.941Z,13.80
2019-05-20T13:03:13.169Z,14.53
2019-05-20T13:05:40.559Z,14.73
2019-05-20T13:08:07.884Z,13.87
2019-05-20T13:10:36.951Z,14.40
2019-05-20T13:13:07.472Z,15.13
2019-05-20T13:15:35.643Z,15.33
2019-05-20T13:18:03.247Z,15.87
2019-05-20T13:20:30.661Z,15.70
2019-05-20T13:22:58.367Z,15.47
2019-05-20T13:25:25.953Z,16.03
2019-05-20T13:27:53.116Z,16.57
2019-05-20T13:30:22.945Z,15.00
2019-05-20T13:32:50.331Z,15.57
2019-05-20T13:35:18.556Z,16.80
2019-05-20T13:37:46.364Z,17.33
2019-05-20T13:40:14.209Z,15.10
2019-05-20T13:42:41.483Z,17.97
2019-05-20T13:45:22.709Z,17.50
2019-05-20T13:47:50.399Z,19.20
2019-05-20T13:50:26.115Z,18.77
2019-05-20T13:52:53.376Z,18.00
2019-05-20T13:55:20.965Z,18.40
2019-05-20T13:57:48.254Z,18.23
2019-05-20T14:00:16.050Z,18.50
2019-05-20T14:02:44.156Z,20.10
2019-05-20T14:05:16.892Z,21.03
2019-05-20T14:07:44.500Z,20.67
2019-05-20T14:10:12.517Z,20.17
2019-05-20T14:12:39.900Z,21.60
2019-05-20T14:15:15.020Z,20.27
2019-05-20T14:17:45.972Z,21.70
2019-05-20T14:20:22.105Z,20.53
2019-05-20T14:22:59.372Z,22.80
2019-05-20T14:25:29.243Z,19.63
2019-05-20T14:27:56.468Z,23.57
2019-05-20T14:30:24.152Z,25.00
2019-05-20T14:32:54.514Z,22.77
2019-05-20T14:35:21.861Z,21.43
2019-05-20T14:37:49.966Z,22.53
2019-05-20T14:40:17.680Z,24.93
2019-05-20T14:42:45.257Z,22.60
2019-05-20T14:45:12.818Z,23.00
2019-05-20T14:47:41.589Z,19.80
2019-05-20T14:50:10.467Z,23.70
2019-05-20T14:52:39.336Z,23.20
2019-05-20T14:55:14.760Z,21.50
2019-05-20T14:57:43.048Z,22.90
2019-05-20T15:00:11.604Z,23.20
2019-05-20T15:02:38.773Z,23.30
2019-05-20T15:05:07.350Z,24.10
2019-05-20T15:07:34.532Z,22.00
2019-05-20T15:10:03.365Z,23.27
2019-05-20T15:12:31.273Z,19.67
2019-05-20T15:15:02.328Z,24.60
2019-05-20T15:17:29.861Z,24.43
2019-05-20T15:19:57.225Z,24.63
2019-05-20T15:22:24.712Z,22.60
2019-05-20T15:24:52.099Z,21.27
2019-05-20T15:27:19.903Z,23.47
2019-05-20T15:29:48.251Z,25.97
2019-05-20T15:32:15.590Z,25.37
2019-05-20T15:34:42.778Z,22.50
2019-05-20T15:37:09.968Z,26.27
2019-05-20T15:39:37.275Z,23.80
2019-05-20T15:42:05.004Z,24.93
2019-05-20T15:44:32.284Z,27.37
2019-05-20T15:46:59.844Z,26.40
2019-05-20T15:49:27.398Z,27.30
2019-05-20T15:51:54.645Z,26.73
2019-05-20T15:54:22.638Z,27.70
2019-05-20T15:56:51.116Z,28.37
2019-05-20T15:59:19.071Z,29.47
2019-05-20T16:01:48.776Z,29.40
2019-05-20T16:04:16.313Z,26.23
2019-05-20T16:06:43.820Z,28.53
2019-05-20T16:09:11.600Z,24.33
2019-05-20T16:11:50.129Z,31.33
2019-05-20T16:14:17.582Z,27.33
2019-05-20T16:16:44.934Z,24.53
2019-05-20T16:19:14.124Z,28.70
2019-05-20T16:21:41.416Z,26.63
2019-05-20T16:24:08.829Z,29.33
2019-05-20T16:26:36.413Z,28.80
2019-05-20T16:29:03.834Z,34.77
2019-05-20T16:31:31.232Z,28.90
2019-05-20T16:33:59.731Z,25.90
2019-05-20T16:36:28.281Z,28.40
2019-05-20T16:38:56.429Z,28.47
2019-05-20T16:41:32.803Z,29.53
2019-05-20T16:44:01.248Z,25.73
2019-05-20T16:46:28.600Z,24.53
2019-05-20T16:48:55.873Z,28.77
2019-05-20T16:51:23.669Z,26.50
2019-05-20T16:53:50.951Z,23.83
2019-05-20T16:56:18.329Z,26.80
2019-05-20T16:58:45.660Z,23.27
2019-05-20T17:01:14.906Z,28.23
2019-05-20T17:03:42.688Z,29.80
2019-05-20T17:06:10.385Z,28.23
2019-05-20T17:08:37.709Z,28.00
2019-05-20T17:11:05.214Z,27.37
2019-05-20T17:13:32.558Z,29.67
2019-05-20T17:16:00.057Z,27.60
2019-05-20T17:18:27.639Z,30.70
2019-05-20T17:20:54.943Z,27.57
2019-05-20T17:23:22.740Z,28.10
2019-05-20T17:25:50.923Z,28.23
2019-05-20T17:28:18.623Z,30.50
2019-05-20T17:30:46.674Z,33.80
2019-05-20T17:33:14.105Z,32.50
2019-05-20T17:35:41.586Z,32.23
2019-05-20T17:38:09.067Z,31.27
2019-05-20T17:40:36.578Z,31.37
2019-05-20T17:43:04.624Z,31.20
2019-05-20T17:45:32.142Z,33.23
2019-05-20T17:47:59.645Z,31.30
2019-05-20T17:50:27.110Z,30.27
2019-05-20T17:52:54.390Z,32.07
2019-05-20T17:55:22.019Z,29.47
2019-05-20T17:57:49.332Z,25.63
2019-05-20T18:00:20.429Z,27.60
2019-05-20T18:02:47.953Z,29.10
2019-05-20T18:05:15.853Z,33.23
2019-05-20T18:07:43.353Z,31.60
2019-05-20T18:10:11.441Z,29.33
2019-05-20T18:12:38.711Z,29.37
2019-05-20T18:15:07.229Z,28.10
2019-05-20T18:17:34.731Z,29.07
2019-05-20T18:20:03.279Z,29.33
2019-05-20T18:22:30.797Z,30.07
2019-05-20T18:24:58.111Z,31.37
2019-05-20T18:27:25.652Z,30.03
2019-05-20T18:29:53.177Z,30.63
2019-05-20T18:32:20.805Z,30.53
2019-05-20T18:34:48.303Z,31.37
2019-05-20T18:37:15.690Z,30.00
2019-05-20T18:39:43.100Z,30.43
2019-05-20T18:42:11.155Z,30.07
2019-05-20T18:44:38.618Z,30.87
2019-05-20T18:47:08.833Z,31.97
2019-05-20T18:49:41.132Z,31.73
2019-05-20T18:52:07.306Z,30.77
2019-05-20T18:54:34.686Z,34.17
2019-05-20T18:57:02.088Z,32.30
2019-05-20T18:59:29.381Z,31.17
2019-05-20T19:02:05.122Z,31.87
2019-05-20T19:04:26.088Z,29.97
2019-05-20T19:07:02.208Z,30.83
2019-05-20T19:09:29.592Z,29.07
2019-05-20T19:11:56.870Z,28.00
2019-05-20T19:14:24.303Z,33.17
2019-05-20T19:16:51.747Z,31.70
2019-05-20T19:19:19.196Z,28.30
2019-05-20T19:21:46.601Z,35.03
2019-05-20T19:24:14.048Z,34.37
2019-05-20T19:26:41.478Z,32.33
2019-05-20T19:29:09.100Z,31.23
2019-05-20T19:31:37.872Z,28.90
2019-05-20T19:34:05.401Z,29.63
2019-05-20T19:36:33.689Z,28.87
2019-05-20T19:39:01.130Z,33.07
2019-05-20T19:41:28.414Z,30.37
2019-05-20T19:43:58.744Z,34.80
2019-05-20T19:46:26.275Z,35.07
2019-05-20T19:48:53.444Z,35.20
2019-05-20T19:51:21.008Z,32.60
2019-05-20T19:53:48.251Z,35.27
2019-05-20T19:56:15.553Z,34.73
2019-05-20T19:58:42.807Z,36.83
2019-05-20T20:01:10.370Z,37.17
2019-05-20T20:03:37.650Z,36.63
2019-05-20T20:06:06.979Z,39.43
2019-05-20T20:08:34.161Z,39.10
2019-05-20T20:11:01.681Z,40.47
2019-05-20T20:13:34.189Z,37.30
2019-05-20T20:16:00.606Z,36.43
2019-05-20T20:18:27.951Z,34.73
2019-05-20T20:20:55.876Z,36.20
2019-05-20T20:23:23.169Z,35.07
2019-05-20T20:25:51.077Z,40.60
2019-05-20T20:28:18.494Z,35.07
2019-05-20T20:30:52.526Z,36.03
2019-05-20T20:33:19.862Z,38.20
2019-05-20T20:35:47.146Z,36.13
2019-05-20T20:38:14.550Z,33.57
2019-05-20T20:40:42.149Z,32.80
2019-05-20T20:43:10.077Z,33.23
2019-05-20T20:45:37.608Z,31.33
2019-05-20T20:48:06.584Z,31.63
2019-05-20T20:50:33.929Z,27.47
2019-05-20T20:53:01.384Z,32.07
2019-05-20T20:55:28.909Z,28.53
2019-05-20T20:57:56.243Z,30.63
2019-05-20T21:00:23.877Z,28.07
2019-05-20T21:02:53.545Z,25.17
2019-05-20T21:05:20.714Z,28.33
2019-05-20T21:07:51.540Z,24.80
2019-05-20T21:10:17.580Z,26.13
2019-05-20T21:12:45.089Z,21.53
2019-05-20T21:15:12.939Z,22.13
2019-05-20T21:17:40.116Z,22.43
2019-05-20T21:20:08.003Z,22.07
2019-05-20T21:22:35.277Z,23.93
2019-05-20T21:25:02.985Z,23.07
2019-05-20T21:27:30.372Z,21.27
2019-05-20T21:29:57.526Z,26.40
2019-05-20T21:32:25.257Z,25.73
2019-05-20T21:34:52.897Z,28.57
2019-05-20T21:37:20.200Z,26.90
2019-05-20T21:39:51.243Z,26.87
2019-05-20T21:42:19.153Z,24.33
2019-05-20T21:44:48.118Z,29.67
2019-05-20T21:47:16.133Z,26.30
2019-05-20T21:49:44.542Z,22.67
2019-05-20T21:52:17.461Z,27.47
2019-05-20T21:54:44.764Z,25.57
2019-05-20T21:57:12.468Z,26.80
2019-05-20T21:59:40.521Z,29.73
2019-05-20T22:02:08.808Z,26.23
2019-05-20T22:04:36.579Z,31.90
2019-05-20T22:07:04.221Z,34.53
2019-05-20T22:09:31.897Z,32.67
2019-05-20T22:12:00.363Z,30.50
2019-05-20T22:14:28.168Z,33.33
2019-05-20T22:16:57.957Z,27.73
2019-05-20T22:19:27.439Z,27.60
2019-05-20T22:22:13.805Z,31.40
2019-05-20T22:24:43.913Z,34.37
2019-05-20T22:27:11.269Z,26.67
2019-05-20T22:29:39.941Z,29.97
2019-05-20T22:32:08.907Z,32.70
2019-05-20T22:34:37.674Z,36.67
2019-05-20T22:37:07.012Z,30.97
2019-05-20T22:39:35.106Z,30.57
2019-05-20T22:42:09.807Z,29.90
2019-05-20T22:44:38.516Z,31.73
2019-05-20T22:47:06.635Z,32.17
2019-05-20T22:49:34.224Z,31.63
2019-05-20T22:52:02.049Z,30.00
2019-05-20T22:54:29.340Z,33.07
2019-05-20T22:56:56.916Z,38.00
2019-05-20T22:59:24.090Z,31.73
2019-05-20T23:01:51.549Z,31.57
2019-05-20T23:04:18.988Z,36.33
2019-05-20T23:06:46.562Z,32.00
2019-05-20T23:09:14.970Z,26.40
2019-05-20T23:11:42.492Z,31.60
2019-05-20T23:14:10.168Z,31.03
2019-05-20T23:16:37.423Z,28.33
2019-05-20T23:19:04.729Z,26.30
2019-05-20T23:21:31.997Z,24.97
2019-05-20T23:23:59.519Z,22.20
2019-05-20T23:26:27.382Z,20.77
2019-05-20T23:28:54.937Z,24.93
2019-05-20T23:31:22.336Z,24.47
2019-05-20T23:33:49.870Z,21.90
2019-05-20T23:36:17.446Z,19.50
2019-05-20T23:38:45.118Z,26.23
2019-05-20T23:41:13.046Z,20.10
2019-05-20T23:43:40.210Z,23.33
2019-05-20T23:46:07.928Z,24.20
2019-05-20T23:48:35.879Z,25.43
2019-05-20T23:51:03.341Z,18.77
2019-05-20T23:53:30.909Z,21.27
2019-05-20T23:55:58.155Z,25.63
2019-05-20T23:58:25.531Z,25.20
